KCEC/CEC METAR and TAF weather

Enter ICAO airport designator
Station Type Date Time Source
KCEC METAR 2019/08/17 09:56 UTC NOAA

KCEC 170956Z AUTO 00000KT 7SM CLR 11/10 A2991 RMK AO2 SLP129 T01110100


Station Type Date Time Source
KCEC Decoded METAR 2019/08/17 09:56 UTC NOAA

Station name not available
Aug 17, 2019 - 05:56 AM EDT / 2019.08.17 0956 UTC
Wind: Calm:0
Visibility: 7 mile(s):0
Sky conditions: clear
Temperature: 52.0 F (11.1 C)
Dew Point: 50.0 F (10.0 C)
Relative Humidity: 92%
Pressure (altimeter): 29.91 in. Hg (1012 hPa)
ob: KCEC 170956Z AUTO 00000KT 7SM CLR 11/10 A2991 RMK AO2 SLP129 T01110100
cycle: 10

Station Type Date Time Source
KCEC TAF 2019/08/17 07:27 UTC NOAA

TAF
AMD KCEC 170725Z 1707/1806 17009KT P6SM SKC
FM170900 36008KT P6SM SCT004
FM171400 35009KT 4SM BR BKN004
FM171600 33011KT P6SM SCT004
FM172000 33015G20KT P6SM SKC

Example: see airport list